Time;durP1;ratioP1;P1;durP2;ratioP2;P2;SDS_P1;SDS_P2;PMS_P1;PMS_P2;Temp;Humidity;BMP_temperature;BMP_pressure;BME280_temperature;BME280_humidity;BME280_pressure;Samples;Min_cycle;Max_cycle;Signal;HPM_P1;HPM_P2
2023/06/09 00:00:22;;;;;;;10.27;7.60;;;;;;;17.91;100.00;98386.66;4469621;32;20422;-65
2023/06/09 00:02:50;;;;;;;10.90;6.62;;;;;;;17.82;100.00;98382.50;4469302;32;20092;-65
2023/06/09 00:05:18;;;;;;;9.23;5.75;;;;;;;17.77;100.00;98391.03;4469060;32;20593;-65
2023/06/09 00:07:47;;;;;;;9.38;5.07;;;;;;;17.66;100.00;98388.91;4469239;32;20101;-65
2023/06/09 00:10:15;;;;;;;7.07;4.95;;;;;;;17.58;100.00;98392.53;4469331;32;20249;-65
2023/06/09 00:12:42;;;;;;;6.25;3.97;;;;;;;17.40;100.00;98387.69;4469217;32;20088;-65
2023/06/09 00:15:10;;;;;;;6.25;3.70;;;;;;;17.30;100.00;98382.69;4469218;32;20425;-65
2023/06/09 00:17:39;;;;;;;5.97;3.58;;;;;;;17.14;100.00;98386.44;4469107;32;20405;-65
2023/06/09 00:20:09;;;;;;;4.20;3.10;;;;;;;16.89;100.00;98383.31;4469225;32;20118;-64
2023/06/09 00:22:42;;;;;;;11.35;3.62;;;;;;;16.86;100.00;98383.66;4469127;32;20100;-65
2023/06/09 00:25:14;;;;;;;6.20;3.62;;;;;;;16.92;100.00;98398.00;4469196;32;20240;-65
2023/06/09 00:27:45;;;;;;;9.90;3.42;;;;;;;16.91;100.00;98391.06;4468478;32;20077;-65
2023/06/09 00:30:14;;;;;;;6.53;3.55;;;;;;;16.81;100.00;98384.22;4468980;32;20115;-64
2023/06/09 00:33:01;;;;;;;7.18;3.42;;;;;;;16.66;100.00;98372.88;4469138;32;20084;-65
2023/06/09 00:35:29;;;;;;;5.22;2.97;;;;;;;16.61;100.00;98359.41;4469021;32;20164;-65
2023/06/09 00:37:56;;;;;;;5.87;3.33;;;;;;;16.56;100.00;98357.28;4468871;32;20511;-65
2023/06/09 00:40:23;;;;;;;4.65;3.42;;;;;;;16.40;100.00;98358.31;4454744;32;20527;-64
2023/06/09 00:42:51;;;;;;;3.95;3.12;;;;;;;16.35;100.00;98363.34;4468890;32;20493;-64
2023/06/09 00:45:19;;;;;;;5.70;3.78;;;;;;;16.32;100.00;98364.53;4469019;32;20157;-65
2023/06/09 00:47:46;;;;;;;8.07;4.03;;;;;;;16.23;100.00;98359.53;4468762;32;20139;-65
2023/06/09 00:50:16;;;;;;;9.82;3.70;;;;;;;16.20;100.00;98349.31;4468669;32;20155;-65
2023/06/09 00:52:45;;;;;;;5.78;3.03;;;;;;;16.21;100.00;98343.03;4455086;32;20095;-65
2023/06/09 00:55:12;;;;;;;4.32;3.20;;;;;;;16.18;100.00;98351.34;4468644;32;20080;-64
2023/06/09 00:57:44;;;;;;;7.43;3.00;;;;;;;16.19;100.00;98347.69;4455275;32;20134;-65
2023/06/09 01:00:15;;;;;;;5.95;3.62;;;;;;;16.11;100.00;98349.44;4468707;32;20685;-65
2023/06/09 01:02:43;;;;;;;6.62;3.72;;;;;;;16.10;100.00;98339.03;4468906;32;20119;-64
2023/06/09 01:05:12;;;;;;;6.37;3.25;;;;;;;15.93;100.00;98327.84;4468436;32;20085;-64
2023/06/09 01:08:21;;;;;;;7.00;3.53;;;;;;;15.91;100.00;98322.75;4468407;32;20188;-64
2023/06/09 01:10:59;;;;;;;4.55;3.15;;;;;;;15.85;100.00;98323.47;4454395;32;20148;-64
2023/06/09 01:13:40;;;;;;;9.10;3.60;;;;;;;15.79;100.00;98303.03;4468433;32;20413;-64
2023/06/09 01:16:24;;;;;;;5.87;3.87;;;;;;;15.58;100.00;98293.19;4468689;32;20143;-64
2023/06/09 01:18:52;;;;;;;7.65;4.15;;;;;;;15.52;100.00;98286.81;4454625;32;20085;-64
2023/06/09 01:21:32;;;;;;;6.12;4.43;;;;;;;15.55;100.00;98290.91;4454422;32;20089;-64
2023/06/09 01:24:32;;;;;;;8.55;4.60;;;;;;;15.53;100.00;98293.72;4455005;32;20112;-64
2023/06/09 01:27:01;;;;;;;9.50;5.47;;;;;;;15.61;100.00;98303.41;4468555;32;20131;-64
2023/06/09 01:29:32;;;;;;;9.82;4.80;;;;;;;15.64;100.00;98304.84;4454305;32;20165;-64
2023/06/09 01:32:02;;;;;;;7.87;5.00;;;;;;;15.69;100.00;98299.84;4468243;32;20115;-64
2023/06/09 01:34:30;;;;;;;8.50;4.60;;;;;;;15.73;100.00;98309.03;4454039;32;20101;-65
2023/06/09 01:36:58;;;;;;;8.20;4.22;;;;;;;15.79;100.00;98303.03;4454227;32;20153;-64
2023/06/09 01:39:27;;;;;;;6.00;4.28;;;;;;;15.79;100.00;98298.59;4468029;32;20196;-64
2023/06/09 01:41:54;;;;;;;7.18;4.90;;;;;;;15.79;100.00;98297.75;4456280;32;20131;-64
2023/06/09 01:44:22;;;;;;;8.23;4.60;;;;;;;15.79;100.00;98303.03;4470503;32;20120;-64
2023/06/09 01:46:49;;;;;;;7.55;4.43;;;;;;;15.78;100.00;98304.88;4470377;32;20109;-65
2023/06/09 01:49:28;;;;;;;9.88;4.18;;;;;;;15.77;100.00;98305.88;4470159;32;20136;-64
2023/06/09 01:52:08;;;;;;;10.30;4.35;;;;;;;15.83;100.00;98298.22;4470173;32;20116;-64
2023/06/09 01:55:09;;;;;;;6.87;3.90;;;;;;;15.84;100.00;98300.69;4470497;32;20397;-64
2023/06/09 01:57:46;;;;;;;8.23;4.68;;;;;;;15.82;100.00;98301.87;4406024;32;20181;-64
2023/06/09 02:00:14;;;;;;;8.75;4.68;;;;;;;15.85;100.00;98298.88;4400841;32;166815;-64
2023/06/09 02:02:42;;;;;;;7.68;4.32;;;;;;;15.79;100.00;98303.03;4403663;32;20102;-64
2023/06/09 02:05:10;;;;;;;9.60;4.72;;;;;;;15.72;100.00;98305.56;4400600;32;20297;-64
2023/06/09 02:07:39;;;;;;;6.45;4.20;;;;;;;15.65;100.00;98303.84;4393658;32;20606;-64
2023/06/09 02:10:08;;;;;;;6.80;4.22;;;;;;;15.65;100.00;98307.28;4406217;32;20128;-64
2023/06/09 02:12:35;;;;;;;7.30;4.37;;;;;;;15.59;100.00;98300.09;4393433;32;20834;-64
2023/06/09 02:15:04;;;;;;;5.68;3.80;;;;;;;15.55;100.00;98301.47;4406105;32;20627;-64
2023/06/09 02:17:33;;;;;;;5.50;3.95;;;;;;;15.59;100.00;98314.13;4406223;32;20157;-64
2023/06/09 02:20:03;;;;;;;4.97;3.72;;;;;;;15.57;100.00;98312.66;4406003;32;20108;-64
2023/06/09 02:22:31;;;;;;;7.05;4.32;;;;;;;15.57;100.00;98318.75;4405859;32;20094;-64
2023/06/09 02:24:58;;;;;;;7.60;4.10;;;;;;;15.51;100.00;98316.84;4405877;32;20664;-64
2023/06/09 02:27:26;;;;;;;5.37;3.90;;;;;;;15.54;100.00;98320.94;4405894;32;20105;-65
2023/06/09 02:29:53;;;;;;;4.45;3.12;;;;;;;15.57;100.00;98325.88;4405758;32;20201;-65
2023/06/09 02:32:20;;;;;;;5.55;3.42;;;;;;;15.49;100.00;98323.28;4405925;32;20087;-64
2023/06/09 02:34:48;;;;;;;4.75;2.97;;;;;;;15.49;100.00;98323.28;4439457;32;20111;-64
2023/06/09 02:37:16;;;;;;;6.03;3.30;;;;;;;15.51;100.00;98316.03;4454524;32;20521;-64
2023/06/09 02:39:44;;;;;;;5.30;3.00;;;;;;;15.46;100.00;98315.72;4454332;32;20115;-64
2023/06/09 02:42:11;;;;;;;5.37;3.35;;;;;;;15.49;100.00;98321.50;4454438;32;20430;-64
2023/06/09 02:44:38;;;;;;;4.62;3.12;;;;;;;15.40;100.00;98320.75;4454342;32;20085;-64
2023/06/09 02:47:06;;;;;;;5.37;3.22;;;;;;;15.43;100.00;98320.38;4438056;32;20204;-64
2023/06/09 02:49:33;;;;;;;4.30;3.33;;;;;;;15.35;100.00;98323.09;4450938;32;20081;-64
2023/06/09 02:52:01;;;;;;;3.33;2.30;;;;;;;15.28;100.00;98324.81;4454342;32;20097;-64
2023/06/09 02:54:29;;;;;;;4.53;3.10;;;;;;;15.22;100.00;98322.88;4454607;32;20152;-64
2023/06/09 02:56:56;;;;;;;5.15;2.58;;;;;;;15.21;100.00;98323.87;4454298;32;20123;-64
2023/06/09 02:59:24;;;;;;;4.85;2.75;;;;;;;15.16;100.00;98324.41;4454282;32;20096;-64
2023/06/09 03:01:52;;;;;;;4.15;2.60;;;;;;;15.10;100.00;98321.66;4454378;32;20562;-64
2023/06/09 03:04:20;;;;;;;4.22;2.62;;;;;;;15.07;100.00;98325.47;4454317;32;20104;-64
2023/06/09 03:06:50;;;;;;;5.00;2.65;;;;;;;15.08;100.00;98320.03;4466541;32;20104;-64
2023/06/09 03:09:18;;;;;;;3.53;2.65;;;;;;;15.01;100.00;98315.63;4455504;32;20231;-64
2023/06/09 03:11:46;;;;;;;5.47;2.40;;;;;;;15.07;100.00;98322.84;4469720;32;20153;-64
2023/06/09 03:14:14;;;;;;;5.22;3.00;;;;;;;15.05;100.00;98317.75;4469495;32;20115;-64
2023/06/09 03:16:41;;;;;;;6.43;3.00;;;;;;;15.04;100.00;98315.28;4469647;32;20092;-64
2023/06/09 03:19:09;;;;;;;6.68;3.58;;;;;;;15.00;100.00;98314.78;4469716;32;20183;-64
2023/06/09 03:21:36;;;;;;;4.87;3.22;;;;;;;15.02;100.00;98314.66;4455636;32;20462;-64
2023/06/09 03:24:05;;;;;;;7.32;3.87;;;;;;;15.07;100.00;98304.38;4469713;32;20101;-64
2023/06/09 03:26:33;;;;;;;4.18;3.50;;;;;;;15.08;100.00;98306.03;4469474;32;20100;-64
2023/06/09 03:29:01;;;;;;;6.37;3.62;;;;;;;15.14;100.00;98312.38;4470042;32;20104;-64
2023/06/09 03:31:28;;;;;;;5.00;3.30;;;;;;;15.21;100.00;98310.69;4469393;32;20139;-64
2023/06/09 03:33:56;;;;;;;7.40;4.07;;;;;;;15.25;100.00;98314.63;4469706;32;20652;-64
2023/06/09 03:36:26;;;;;;;6.85;4.30;;;;;;;15.25;100.00;98314.63;4469430;32;20184;-64
2023/06/09 03:38:54;;;;;;;7.25;4.40;;;;;;;15.25;100.00;98318.06;4469766;32;20478;-64
2023/06/09 03:41:21;;;;;;;8.02;3.90;;;;;;;15.31;100.00;98321.00;4469465;32;20110;-64
2023/06/09 03:43:49;;;;;;;5.15;3.40;;;;;;;15.39;100.00;98321.72;4469770;32;20102;-64
2023/06/09 03:46:17;;;;;;;6.18;3.95;;;;;;;15.42;100.00;98315.28;4469740;32;20084;-64
2023/06/09 03:48:44;;;;;;;7.43;3.75;;;;;;;15.46;100.00;98321.00;4469626;32;20160;-64
2023/06/09 03:51:12;;;;;;;6.25;4.25;;;;;;;15.52;100.00;98321.12;4469110;32;20089;-64
2023/06/09 03:53:40;;;;;;;4.85;2.83;;;;;;;15.53;100.00;98319.28;4469620;32;20100;-64
2023/06/09 03:56:07;;;;;;;6.75;2.72;;;;;;;15.54;100.00;98327.03;4469344;32;20195;-64
2023/06/09 03:58:34;;;;;;;3.22;2.87;;;;;;;15.56;100.00;98324.22;4469511;32;20474;-64
2023/06/09 04:01:02;;;;;;;3.58;2.20;;;;;;;15.57;100.00;98323.22;4469177;32;20097;-64
2023/06/09 04:03:30;;;;;;;3.47;2.25;;;;;;;15.63;100.00;98327.78;4468676;32;20123;-64
2023/06/09 04:05:57;;;;;;;5.65;2.42;;;;;;;15.66;100.00;98319.50;4469307;32;20156;-64
2023/06/09 04:08:26;;;;;;;3.42;2.47;;;;;;;15.69;100.00;98318.34;4468921;32;20100;-64
2023/06/09 04:10:53;;;;;;;2.90;2.28;;;;;;;15.64;100.00;98326.78;4468946;32;20109;-64
2023/06/09 04:13:21;;;;;;;3.50;2.20;;;;;;;15.68;100.00;98322.78;4453861;32;20112;-64
2023/06/09 04:15:48;;;;;;;2.90;1.95;;;;;;;15.59;100.00;98335.25;4468209;32;20089;-64
2023/06/09 04:18:16;;;;;;;4.37;1.90;;;;;;;15.54;100.00;98342.06;4469331;32;20110;-64
2023/06/09 04:20:43;;;;;;;3.50;2.25;;;;;;;15.68;100.00;98338.63;4469093;32;20077;-64
2023/06/09 04:23:11;;;;;;;3.83;2.10;;;;;;;15.69;100.00;98340.25;4468110;32;20131;-64
2023/06/09 04:25:39;;;;;;;3.12;2.05;;;;;;;15.74;100.00;98342.38;4467233;32;20189;-64
2023/06/09 04:28:08;;;;;;;3.15;2.03;;;;;;;15.79;100.00;98350.59;4466557;32;20136;-65
2023/06/09 04:30:37;;;;;;;3.17;2.20;;;;;;;15.82;100.00;98352.91;4467786;32;20442;-65
2023/06/09 04:33:07;;;;;;;3.22;2.05;;;;;;;15.80;100.00;98352.22;4466699;32;20100;-65
2023/06/09 04:35:35;;;;;;;4.97;2.30;;;;;;;15.77;100.00;98358.69;4467110;32;20127;-65
2023/06/09 04:38:03;;;;;;;2.62;1.80;;;;;;;15.74;100.00;98363.50;4467874;32;20548;-65
2023/06/09 04:40:31;;;;;;;4.00;1.90;;;;;;;15.85;100.00;98351.69;4464319;32;20145;-65
2023/06/09 04:42:59;;;;;;;3.78;1.80;;;;;;;15.88;100.00;98354.81;4466999;32;20093;-65
2023/06/09 04:45:34;;;;;;;3.80;1.77;;;;;;;15.83;100.00;98362.44;4468662;32;20144;-65
2023/06/09 04:48:02;;;;;;;3.80;3.12;;;;;;;15.88;100.00;98361.87;4453325;32;20100;-65
2023/06/09 04:50:35;;;;;;;3.03;1.77;;;;;;;15.88;100.00;98362.72;4459540;32;20100;-65
2023/06/09 04:53:09;;;;;;;3.15;1.52;;;;;;;15.94;100.00;98369.09;4468911;32;20081;-65
2023/06/09 04:55:37;;;;;;;2.15;1.62;;;;;;;15.99;100.00;98372.03;4467329;32;20099;-65
2023/06/09 04:58:05;;;;;;;2.65;1.73;;;;;;;16.04;100.00;98374.94;4468730;32;20119;-65
2023/06/09 05:00:35;;;;;;;2.53;1.80;;;;;;;16.08;100.00;98378.84;4468493;32;20525;-65
2023/06/09 05:03:03;;;;;;;2.45;1.70;;;;;;;16.04;100.00;98382.84;4468223;32;20097;-65
2023/06/09 05:05:30;;;;;;;6.30;1.67;;;;;;;16.14;100.00;98379.97;4461026;32;20101;-65
2023/06/09 05:07:58;;;;;;;2.50;1.70;;;;;;;16.22;100.00;98385.13;4465622;32;20100;-65
2023/06/09 05:10:25;;;;;;;2.58;1.95;;;;;;;16.43;100.00;98397.62;4463660;32;20163;-65
2023/06/09 05:12:52;;;;;;;3.15;2.42;;;;;;;16.66;100.00;98396.66;4464498;32;20780;-67
2023/06/09 05:15:21;;;;;;;3.67;2.37;;;;;;;16.78;100.00;98402.31;4466579;32;20092;-66
2023/06/09 05:17:49;;;;;;;4.50;3.20;;;;;;;16.88;100.00;98400.22;4468170;32;20088;-66
2023/06/09 05:20:17;;;;;;;5.32;2.72;;;;;;;16.85;100.00;98398.72;4467265;32;20128;-65
2023/06/09 05:22:45;;;;;;;5.72;2.97;;;;;;;16.88;100.00;98397.56;4466469;32;20885;-65
2023/06/09 05:25:14;;;;;;;3.30;2.30;;;;;;;16.84;100.00;98394.44;4468054;32;20097;-65
2023/06/09 05:27:45;;;;;;;5.00;2.65;;;;;;;16.81;100.00;98399.28;4463746;32;20100;-67
2023/06/09 05:30:14;;;;;;;3.50;2.05;;;;;;;16.78;100.00;98391.72;4463282;32;20092;-66
2023/06/09 05:32:41;;;;;;;4.32;2.85;;;;;;;16.79;100.00;98391.53;4465877;32;20113;-67
2023/06/09 05:35:09;;;;;;;5.22;2.72;;;;;;;16.72;100.00;98398.56;4464231;32;20477;-67
2023/06/09 05:37:49;;;;;;;5.45;2.40;;;;;;;16.79;100.00;98393.34;4465558;32;20084;-67
2023/06/09 05:40:17;;;;;;;4.60;2.72;;;;;;;16.92;100.00;98392.72;4468871;32;20511;-67
2023/06/09 05:42:46;;;;;;;5.65;3.10;;;;;;;16.92;100.00;98392.72;4468313;32;20118;-68
2023/06/09 05:45:14;;;;;;;4.80;2.90;;;;;;;16.99;100.00;98388.31;4454169;32;20167;-68
2023/06/09 05:47:42;;;;;;;4.15;2.40;;;;;;;17.12;100.00;98390.28;4463704;32;20122;-69
2023/06/09 05:50:09;;;;;;;4.80;2.65;;;;;;;17.17;100.00;98396.66;4467456;32;20120;-68
2023/06/09 05:52:37;;;;;;;5.90;2.83;;;;;;;17.40;100.00;98390.34;4466297;32;20131;-67
2023/06/09 05:55:05;;;;;;;4.90;3.37;;;;;;;17.43;100.00;98395.25;4462631;32;20109;-67
2023/06/09 05:57:32;;;;;;;4.90;2.33;;;;;;;17.56;100.00;98390.06;4453991;32;20084;-67
2023/06/09 06:00:07;;;;;;;3.67;2.30;;;;;;;17.58;100.00;98389.03;4459310;32;20092;-67
2023/06/09 06:02:38;;;;;;;4.85;2.40;;;;;;;17.71;100.00;98399.75;4465626;32;20093;-67
2023/06/09 06:05:06;;;;;;;3.53;2.55;;;;;;;17.82;100.00;98401.88;4464842;32;20101;-67
2023/06/09 06:07:38;;;;;;;16.75;3.03;;;;;;;17.89;100.00;98397.47;4463714;32;20116;-68
2023/06/09 06:10:07;;;;;;;5.95;3.20;;;;;;;18.06;100.00;98395.34;4464179;32;20135;-66
2023/06/09 06:12:38;;;;;;;3.50;2.75;;;;;;;18.23;100.00;98401.16;4464564;32;20088;-65
2023/06/09 06:15:05;;;;;;;4.78;2.97;;;;;;;18.26;100.00;98405.25;4457038;32;20132;-66
2023/06/09 06:17:33;;;;;;;5.53;4.45;;;;;;;18.50;100.00;98405.75;4447093;32;20113;-65
2023/06/09 06:20:00;;;;;;;8.40;3.40;;;;;;;18.64;100.00;98402.16;4460520;32;20088;-65
2023/06/09 06:22:27;;;;;;;5.78;4.28;;;;;;;18.75;100.00;98411.38;4462472;32;20162;-66
2023/06/09 06:24:55;;;;;;;10.52;4.85;;;;;;;18.92;100.00;98404.72;4461432;32;20105;-67
2023/06/09 06:27:22;;;;;;;9.23;5.30;;;;;;;18.97;100.00;98404.16;4456595;32;20112;-67
2023/06/09 06:29:50;;;;;;;7.72;5.78;;;;;;;19.00;100.00;98411.72;4464242;32;20130;-68
2023/06/09 06:32:18;;;;;;;7.43;5.47;;;;;;;18.88;100.00;98414.13;4459379;32;20096;-68
2023/06/09 06:34:45;;;;;;;8.52;6.15;;;;;;;18.81;100.00;98418.56;4463857;32;20131;-68
2023/06/09 06:37:12;;;;;;;10.60;5.50;;;;;;;18.59;100.00;98417.84;4461956;32;20134;-68
2023/06/09 06:39:40;;;;;;;7.47;5.10;;;;;;;18.56;100.00;98413.75;4462830;32;20088;-67
2023/06/09 06:42:07;;;;;;;8.65;5.35;;;;;;;18.57;100.00;98411.94;4447663;32;20127;-67
2023/06/09 06:44:34;;;;;;;7.00;4.65;;;;;;;18.72;100.00;98414.44;4458933;32;20496;-67
2023/06/09 06:47:02;;;;;;;7.37;4.53;;;;;;;18.76;100.00;98415.69;4450135;32;20115;-68
2023/06/09 06:49:29;;;;;;;10.02;6.85;;;;;;;18.63;100.00;98419.09;4449113;32;20084;-66
2023/06/09 06:51:57;;;;;;;14.93;8.38;;;;;;;18.49;100.00;98422.72;4442550;32;20173;-66
2023/06/09 06:54:25;;;;;;;15.32;8.10;;;;;;;18.50;100.00;98421.69;4456494;32;21180;-67
2023/06/09 06:56:52;;;;;;;10.95;8.20;;;;;;;18.60;100.00;98428.25;4463303;32;20092;-68
2023/06/09 06:59:19;;;;;;;12.23;7.12;;;;;;;18.58;100.00;98434.78;4463720;32;20558;-69
2023/06/09 07:01:48;;;;;;;10.05;7.65;;;;;;;18.44;100.00;98440.03;4464674;32;20538;-67
2023/06/09 07:04:15;;;;;;;12.55;7.85;;;;;;;18.26;100.00;98437.06;4446926;32;20478;-67
2023/06/09 07:06:42;;;;;;;12.25;8.10;;;;;;;18.44;100.00;98439.22;4454107;32;20124;-67
2023/06/09 07:09:10;;;;;;;13.38;7.95;;;;;;;18.79;100.00;98439.97;4463690;32;20096;-66
2023/06/09 07:11:37;;;;;;;10.60;7.47;;;;;;;18.78;100.00;98442.84;4459443;32;20120;-67
2023/06/09 07:14:04;;;;;;;11.88;7.47;;;;;;;18.94;100.00;98442.53;4459009;32;20119;-69
2023/06/09 07:16:32;;;;;;;12.37;7.32;;;;;;;19.13;100.00;98437.47;4461703;32;20165;-67
2023/06/09 07:18:59;;;;;;;10.25;6.87;;;;;;;19.03;100.00;98437.84;4459896;32;20546;-67
2023/06/09 07:21:31;;;;;;;13.60;7.35;;;;;;;19.17;100.00;98444.00;4461653;32;20161;-68
2023/06/09 07:23:59;;;;;;;10.60;7.37;;;;;;;19.22;100.00;98435.44;4457450;32;20646;-67
2023/06/09 07:26:27;;;;;;;10.85;7.12;;;;;;;19.35;100.00;98431.97;4460835;32;20097;-68
2023/06/09 07:28:54;;;;;;;13.52;8.60;;;;;;;19.66;100.00;98432.22;4459338;32;20958;-67
2023/06/09 07:31:22;;;;;;;13.07;8.52;;;;;;;19.74;100.00;98433.03;4458949;32;20112;-66
2023/06/09 07:33:50;;;;;;;15.07;8.70;;;;;;;19.58;100.00;98431.63;4459144;32;20126;-66
2023/06/09 07:36:17;;;;;;;12.98;8.52;;;;;;;19.64;100.00;98428.94;4458225;32;20581;-68
2023/06/09 07:38:46;;;;;;;12.77;9.02;;;;;;;19.81;100.00;98433.91;4459926;32;20235;-68
2023/06/09 07:41:13;;;;;;;11.90;8.63;;;;;;;19.59;100.00;98428.75;4463478;32;20150;-67
2023/06/09 07:43:43;;;;;;;13.02;9.10;;;;;;;19.63;100.00;98424.66;4458150;32;20486;-67
2023/06/09 07:46:13;;;;;;;14.23;9.50;;;;;;;19.63;100.00;98427.31;4462333;32;20166;-67
2023/06/09 07:48:42;;;;;;;13.57;9.23;;;;;;;19.58;100.00;98429.78;4457346;32;20112;-67
2023/06/09 07:51:13;;;;;;;15.15;9.20;;;;;;;19.77;100.00;98428.19;4461352;32;20521;-68
2023/06/09 07:53:41;;;;;;;14.75;8.93;;;;;;;19.85;100.00;98424.50;4461200;32;20164;-67
2023/06/09 07:56:08;;;;;;;12.07;8.20;;;;;;;19.81;100.00;98425.91;4462411;32;20151;-67
2023/06/09 07:58:38;;;;;;;14.95;8.55;;;;;;;19.97;100.00;98422.00;4460526;32;20144;-66
2023/06/09 08:01:05;;;;;;;17.52;8.70;;;;;;;19.93;100.00;98421.59;4453209;32;20157;-66
2023/06/09 08:03:34;;;;;;;10.90;8.38;;;;;;;20.07;100.00;98421.59;4447677;32;20116;-69
2023/06/09 08:06:02;;;;;;;12.82;8.98;;;;;;;19.93;100.00;98413.63;4453407;32;20104;-66
2023/06/09 08:08:31;;;;;;;18.02;10.40;;;;;;;19.95;100.00;98424.88;4457769;32;20156;-68
2023/06/09 08:10:58;;;;;;;11.55;8.55;;;;;;;20.01;100.00;98418.72;4457052;32;20097;-68
2023/06/09 08:13:28;;;;;;;12.85;9.43;;;;;;;20.05;100.00;98413.03;4437940;32;20187;-68
2023/06/09 08:15:55;;;;;;;12.90;8.60;;;;;;;20.17;100.00;98406.03;4459062;32;20144;-68
2023/06/09 08:18:22;;;;;;;13.30;9.32;;;;;;;20.15;100.00;98413.38;4461289;32;20458;-68
2023/06/09 08:20:50;;;;;;;13.48;8.73;;;;;;;20.16;100.00;98410.53;4460440;32;20150;-68
2023/06/09 08:23:20;;;;;;;17.02;9.80;;;;;;;20.19;100.00;98410.09;4464244;32;20564;-67
2023/06/09 08:25:48;;;;;;;12.13;9.10;;;;;;;20.20;100.00;98408.28;4460866;32;20119;-68
2023/06/09 08:28:15;;;;;;;11.73;8.95;;;;;;;20.07;100.00;98405.66;4462459;32;20105;-69
2023/06/09 08:30:43;;;;;;;14.40;9.68;;;;;;;20.11;100.00;98420.16;4466331;32;20092;-69
2023/06/09 08:33:11;;;;;;;15.20;9.98;;;;;;;20.11;100.00;98410.34;4467594;32;20192;-67
2023/06/09 08:35:38;;;;;;;13.93;9.07;;;;;;;20.27;100.00;98405.59;4462446;32;20494;-68
2023/06/09 08:38:06;;;;;;;11.32;8.80;;;;;;;20.16;100.00;98410.53;4463358;32;20108;-68
2023/06/09 08:40:35;;;;;;;12.60;8.68;;;;;;;20.26;100.00;98410.09;4464097;32;20522;-68
2023/06/09 08:43:04;;;;;;;12.02;9.10;;;;;;;20.25;100.00;98412.97;4464016;32;20076;-68
2023/06/09 08:45:35;;;;;;;12.77;8.02;;;;;;;20.32;100.00;98424.41;4469132;32;20092;-69
2023/06/09 08:48:04;;;;;;;11.52;7.95;;;;;;;20.36;100.00;98417.63;4464210;32;20088;-69
2023/06/09 08:50:34;;;;;;;10.00;8.18;;;;;;;20.51;100.00;98434.16;4447257;32;20108;-68
2023/06/09 08:53:01;;;;;;;12.15;7.43;;;;;;;20.79;100.00;98427.75;4461659;32;20100;-69
2023/06/09 08:55:30;;;;;;;10.07;7.62;;;;;;;21.06;100.00;98433.78;4448420;32;20152;-68
2023/06/09 08:57:57;;;;;;;10.80;7.00;;;;;;;21.26;100.00;98424.84;4462432;32;20110;-69
2023/06/09 09:00:25;;;;;;;10.80;7.45;;;;;;;21.31;100.00;98432.19;4453614;32;20165;-67
2023/06/09 09:02:53;;;;;;;11.68;7.10;;;;;;;21.73;100.00;98430.69;4461299;32;20639;-68
2023/06/09 09:05:20;;;;;;;9.80;7.15;;;;;;;21.82;100.00;98428.56;4465136;32;20088;-68
2023/06/09 09:07:47;;;;;;;9.23;6.72;;;;;;;21.85;100.00;98433.47;4462879;32;20089;-67
2023/06/09 09:10:15;;;;;;;11.68;7.30;;;;;;;21.80;100.00;98434.12;4460692;32;20867;-66
2023/06/09 09:12:50;;;;;;;10.93;6.68;;;;;;;21.60;100.00;98436.13;4463826;32;20100;-67
2023/06/09 09:15:18;;;;;;;10.07;6.35;;;;;;;21.47;100.00;98433.50;4461770;32;20155;-66
2023/06/09 09:17:46;;;;;;;15.27;6.40;;;;;;;21.49;100.00;98428.81;4458257;32;20096;-68
2023/06/09 09:20:14;;;;;;;9.90;5.65;;;;;;;21.57;100.00;98431.22;4459698;32;20176;-64
2023/06/09 09:22:49;;;;;;;8.50;5.15;;;;;;;21.88;100.00;98429.56;4461260;32;20454;-67
2023/06/09 09:25:25;;;;;;;9.75;5.35;;;;;;;21.56;100.00;98427.75;4462493;32;20093;-67
2023/06/09 09:28:02;;;;;;;7.47;4.32;;;;;;;21.56;100.00;98425.06;4461835;32;20177;-66
2023/06/09 09:30:45;;;;;;;6.90;4.90;;;;;;;21.61;100.00;98433.22;4465545;32;20084;-67
2023/06/09 09:33:23;;;;;;;11.30;5.40;;;;;;;21.95;100.00;98432.94;4456415;32;20101;-66
2023/06/09 09:35:53;;;;;;;8.38;5.15;;;;;;;22.01;100.00;98434.75;4464034;32;20175;-67
2023/06/09 09:38:29;;;;;;;7.93;5.90;;;;;;;21.75;100.00;98441.13;4446247;32;20084;-68
2023/06/09 09:40:59;;;;;;;7.47;5.87;;;;;;;21.52;100.00;98436.38;4464292;32;20119;-68
2023/06/09 09:43:28;;;;;;;9.30;6.62;;;;;;;21.39;100.00;98424.78;4462019;32;20127;-68
2023/06/09 09:45:59;;;;;;;9.27;6.45;;;;;;;21.43;100.00;98428.63;4457160;32;20386;-68
2023/06/09 09:48:27;;;;;;;10.40;7.00;;;;;;;21.33;100.00;98428.25;4460204;32;20688;-68
2023/06/09 09:50:55;;;;;;;7.82;6.22;;;;;;;20.89;100.00;98432.63;4462164;32;20108;-68
2023/06/09 09:53:23;;;;;;;11.90;7.25;;;;;;;20.49;100.00;98433.56;4463868;32;20130;-68
2023/06/09 09:55:54;;;;;;;7.55;6.22;;;;;;;20.36;100.00;98426.44;4454573;32;20096;-67
2023/06/09 09:58:33;;;;;;;10.77;6.45;;;;;;;20.09;100.00;98424.84;4460038;32;20698;-67
2023/06/09 10:01:06;;;;;;;16.48;7.68;;;;;;;20.28;100.00;98428.50;4447172;32;20140;-68
2023/06/09 10:03:37;;;;;;;7.70;5.93;;;;;;;20.34;100.00;98427.69;4463534;32;20088;-68
2023/06/09 10:06:09;;;;;;;8.70;6.20;;;;;;;20.48;100.00;98428.44;4466835;32;20162;-68
2023/06/09 10:08:39;;;;;;;8.73;6.43;;;;;;;20.61;100.00;98420.44;4464978;32;20167;-66
2023/06/09 10:11:06;;;;;;;9.18;5.72;;;;;;;20.44;100.00;98427.22;4465446;32;20108;-67
2023/06/09 10:13:34;;;;;;;7.55;6.07;;;;;;;20.74;100.00;98420.41;4464949;32;20116;-68
2023/06/09 10:16:02;;;;;;;9.63;4.97;;;;;;;21.03;100.00;98418.22;4448009;32;20506;-68
2023/06/09 10:18:31;;;;;;;6.90;3.47;;;;;;;20.94;100.00;98414.19;4463077;32;20093;-67
2023/06/09 10:20:58;;;;;;;6.15;4.00;;;;;;;20.54;100.00;98416.97;4464393;32;20108;-68
2023/06/09 10:23:27;;;;;;;5.40;4.10;;;;;;;20.50;100.00;98418.41;4464113;32;20143;-67
2023/06/09 10:25:55;;;;;;;5.62;3.25;;;;;;;20.29;100.00;98409.69;4462320;32;20107;-68
2023/06/09 10:28:23;;;;;;;5.43;3.53;;;;;;;20.35;100.00;98413.38;4450505;32;20183;-68
2023/06/09 10:30:51;;;;;;;5.07;3.60;;;;;;;20.20;100.00;98414.41;4465315;32;20108;-68
2023/06/09 10:33:25;;;;;;;4.93;3.22;;;;;;;20.34;100.00;98411.72;4466939;32;20092;-68
2023/06/09 10:35:57;;;;;;;6.25;3.62;;;;;;;20.10;100.00;98406.03;4445975;32;20119;-68
2023/06/09 10:38:29;;;;;;;4.18;3.20;;;;;;;20.23;100.00;98409.69;4464009;32;20110;-68
2023/06/09 10:41:29;;;;;;;8.70;3.90;;;;;;;20.27;100.00;98411.72;4463824;32;20713;-68
2023/06/09 10:44:11;;;;;;;7.25;3.72;;;;;;;20.34;100.00;98417.84;4464266;32;20165;-68
2023/06/09 10:46:43;;;;;;;5.43;3.28;;;;;;;20.58;100.00;98414.72;4466262;32;20104;-68
2023/06/09 10:49:25;;;;;;;7.07;3.42;;;;;;;20.63;100.00;98407.72;4465061;32;20146;-68
2023/06/09 10:51:53;;;;;;;5.37;4.12;;;;;;;20.65;100.00;98403.06;4464554;32;20189;-68
2023/06/09 10:54:25;;;;;;;6.32;4.12;;;;;;;20.50;100.00;98411.25;4465638;32;20184;-68
2023/06/09 10:56:57;;;;;;;6.12;4.15;;;;;;;20.74;100.00;98409.75;4463835;32;20165;-68
2023/06/09 10:59:28;;;;;;;5.15;3.87;;;;;;;20.94;100.00;98400.03;4468696;32;20081;-68
2023/06/09 11:02:05;;;;;;;5.03;3.83;;;;;;;21.06;100.00;98399.16;4463318;32;20127;-68
2023/06/09 11:04:43;;;;;;;4.97;3.60;;;;;;;21.41;100.00;98395.25;4462332;32;20092;-67
2023/06/09 11:07:17;;;;;;;4.90;3.30;;;;;;;21.34;100.00;98387.28;4460607;32;20131;-68
2023/06/09 11:09:48;;;;;;;4.85;3.60;;;;;;;21.38;100.00;98385.00;4463928;32;20160;-67
2023/06/09 11:12:25;;;;;;;5.40;4.10;;;;;;;21.34;100.00;98379.28;4455744;32;20108;-68
2023/06/09 11:14:58;;;;;;;8.57;4.53;;;;;;;21.16;100.00;98373.88;4463284;32;20108;-68
2023/06/09 11:17:46;;;;;;;4.80;3.60;;;;;;;21.34;100.00;98376.63;4468373;32;20081;-68
2023/06/09 11:20:15;;;;;;;5.93;4.20;;;;;;;21.44;100.00;98373.47;4465119;32;20222;-69
2023/06/09 11:22:46;;;;;;;5.45;3.70;;;;;;;21.65;100.00;98390.13;4465603;32;20817;-69
2023/06/09 11:25:19;;;;;;;10.32;3.70;;;;;;;21.90;100.00;98392.78;4462978;32;20627;-68
2023/06/09 11:27:49;;;;;;;4.43;3.08;;;;;;;21.62;100.00;98380.75;4461937;32;20594;-68
2023/06/09 11:30:18;;;;;;;5.65;3.15;;;;;;;21.93;100.00;98387.81;4464184;32;20088;-68
2023/06/09 11:32:59;;;;;;;3.58;3.00;;;;;;;22.19;100.00;98380.59;4469916;32;20135;-68
2023/06/09 11:35:39;;;;;;;6.95;3.75;;;;;;;22.15;100.00;98380.22;4470099;32;20101;-68